Time;durP1;ratioP1;P1;durP2;ratioP2;P2;SDS_P1;SDS_P2;PMS_P1;PMS_P2;Temp;Humidity;BMP_temperature;BMP_pressure;BME280_temperature;BME280_humidity;BME280_pressure;Samples;Min_cycle;Max_cycle;Signal;HPM_P1;HPM_P2
2022/09/15 00:01:33;;;;;;;4.50;4.10;;;17.60;99.90;;;;;;5031827;28;20464;-65
2022/09/15 00:04:00;;;;;;;5.07;4.43;;;17.60;99.90;;;;;;5031683;28;20791;-66
2022/09/15 00:06:26;;;;;;;5.20;4.63;;;17.60;99.90;;;;;;5032158;28;20465;-64
2022/09/15 00:08:53;;;;;;;7.40;4.80;;;17.60;99.90;;;;;;5031849;28;20448;-64
2022/09/15 00:11:22;;;;;;;4.50;4.13;;;17.60;99.90;;;;;;5031587;28;20512;-65
2022/09/15 00:13:51;;;;;;;4.87;4.37;;;17.60;99.90;;;;;;5031740;28;20445;-64
2022/09/15 00:16:19;;;;;;;6.93;4.20;;;17.70;99.90;;;;;;5031408;28;20514;-65
2022/09/15 00:18:47;;;;;;;4.63;4.23;;;17.60;99.90;;;;;;5031836;28;20452;-65
2022/09/15 00:21:16;;;;;;;5.20;4.70;;;17.60;99.90;;;;;;5031675;28;20448;-60
2022/09/15 00:23:43;;;;;;;5.60;4.13;;;17.60;99.90;;;;;;5030815;28;20464;-65
2022/09/15 00:26:12;;;;;;;7.83;4.20;;;17.60;99.90;;;;;;5030895;28;20461;-65
2022/09/15 00:28:40;;;;;;;5.83;4.30;;;17.50;99.90;;;;;;5031375;28;20818;-64
2022/09/15 00:31:10;;;;;;;5.40;5.00;;;17.50;99.90;;;;;;5031068;28;20484;-65
2022/09/15 00:33:37;;;;;;;4.90;4.10;;;17.50;99.90;;;;;;5031302;28;20818;-64
2022/09/15 00:36:06;;;;;;;5.07;4.13;;;17.50;99.90;;;;;;5031300;28;20445;-65
2022/09/15 00:38:34;;;;;;;5.10;4.70;;;17.50;99.90;;;;;;5031442;28;20457;-65
2022/09/15 00:41:02;;;;;;;5.50;4.80;;;17.50;99.90;;;;;;5031298;28;20455;-64
2022/09/15 00:43:53;;;;;;;6.30;5.70;;;17.60;99.90;;;;;;5030904;28;20506;-65
2022/09/15 00:46:24;;;;;;;5.00;4.60;;;17.60;99.90;;;;;;5031362;28;20456;-67
2022/09/15 00:49:01;;;;;;;6.07;5.17;;;17.70;99.90;;;;;;5031294;28;20453;-67
2022/09/15 00:51:35;;;;;;;5.20;4.73;;;17.70;99.90;;;;;;5030872;28;20477;-64
2022/09/15 00:54:06;;;;;;;4.90;4.30;;;17.70;99.90;;;;;;5031090;28;20491;-65
2022/09/15 00:56:34;;;;;;;6.60;4.63;;;17.70;99.90;;;;;;5030832;28;20448;-65
2022/09/15 00:59:06;;;;;;;5.40;4.00;;;17.60;99.90;;;;;;5030976;28;20445;-65
2022/09/15 01:01:34;;;;;;;9.03;4.63;;;17.60;99.90;;;;;;5030927;28;20551;-66
2022/09/15 01:04:02;;;;;;;4.40;4.00;;;17.60;99.90;;;;;;5030896;28;20532;-65
2022/09/15 01:06:33;;;;;;;4.43;3.77;;;17.70;99.90;;;;;;5031002;28;20444;-64
2022/09/15 01:09:06;;;;;;;5.73;4.37;;;17.70;99.90;;;;;;5031632;28;20457;-65
2022/09/15 01:11:33;;;;;;;5.00;4.40;;;17.70;99.90;;;;;;5030935;28;20489;-65
2022/09/15 01:14:00;;;;;;;4.30;3.57;;;17.60;99.90;;;;;;5030707;28;20448;-65
2022/09/15 01:16:35;;;;;;;3.90;3.50;;;17.70;99.90;;;;;;5030803;28;20560;-66
2022/09/15 01:19:29;;;;;;;5.73;4.37;;;17.60;99.90;;;;;;5030999;28;20449;-65
2022/09/15 01:22:06;;;;;;;7.07;3.80;;;17.50;99.90;;;;;;5030281;28;20556;-66
2022/09/15 01:24:58;;;;;;;4.90;4.40;;;17.40;99.90;;;;;;5030606;28;20465;-65
2022/09/15 01:27:44;;;;;;;6.03;3.70;;;17.40;99.90;;;;;;5030587;28;20447;-65
2022/09/15 01:30:17;;;;;;;6.30;4.00;;;17.40;99.90;;;;;;5030388;28;20449;-65
2022/09/15 01:33:14;;;;;;;4.80;4.30;;;17.40;99.90;;;;;;5030109;28;20485;-66
2022/09/15 01:35:51;;;;;;;4.70;3.40;;;17.40;99.90;;;;;;5029201;28;20444;-65
2022/09/15 01:38:30;;;;;;;7.33;3.50;;;17.40;99.90;;;;;;5030502;28;20468;-66
2022/09/15 01:41:02;;;;;;;3.07;2.87;;;17.50;99.90;;;;;;5030310;28;20447;-64
2022/09/15 01:43:31;;;;;;;4.57;3.20;;;17.40;99.90;;;;;;5029951;28;20456;-65
2022/09/15 01:46:01;;;;;;;3.07;2.87;;;17.40;99.90;;;;;;5030105;28;20448;-66
2022/09/15 01:48:29;;;;;;;3.77;2.80;;;17.40;99.90;;;;;;5030316;28;20441;-65
2022/09/15 01:51:01;;;;;;;3.97;2.70;;;17.40;99.90;;;;;;5030257;28;20467;-66
2022/09/15 01:53:29;;;;;;;3.30;3.00;;;17.50;99.90;;;;;;5029897;28;20442;-66
2022/09/15 01:56:00;;;;;;;3.20;2.90;;;17.40;99.90;;;;;;5030065;28;20452;-65
2022/09/15 01:58:27;;;;;;;2.93;2.63;;;17.50;99.90;;;;;;5029901;28;20445;-65
2022/09/15 02:00:58;;;;;;;3.73;2.30;;;17.50;99.90;;;;;;5030110;28;20455;-65
2022/09/15 02:03:34;;;;;;;3.83;3.00;;;17.50;99.90;;;;;;5029584;28;20583;-67
2022/09/15 02:06:06;;;;;;;2.87;2.67;;;17.40;99.90;;;;;;5029932;28;20444;-66
2022/09/15 02:08:41;;;;;;;3.50;2.80;;;17.50;99.90;;;;;;5029841;28;20445;-66
2022/09/15 02:11:15;;;;;;;2.80;2.60;;;17.40;99.90;;;;;;5029854;28;20448;-66
2022/09/15 02:13:47;;;;;;;3.13;2.93;;;17.30;99.90;;;;;;5029554;28;20453;-66
2022/09/15 02:16:18;;;;;;;3.20;2.90;;;17.30;99.90;;;;;;5029965;28;20449;-67
2022/09/15 02:18:57;;;;;;;3.33;3.00;;;17.30;99.90;;;;;;5029842;28;20555;-66
2022/09/15 02:21:30;;;;;;;2.93;2.63;;;17.20;99.90;;;;;;5029605;28;20475;-66
2022/09/15 02:24:02;;;;;;;5.43;3.20;;;17.20;99.90;;;;;;5029596;28;20449;-67
2022/09/15 02:26:33;;;;;;;5.07;3.90;;;17.10;99.90;;;;;;5029655;28;20449;-66
2022/09/15 02:29:04;;;;;;;3.80;3.40;;;17.20;99.90;;;;;;5029843;28;21008;-65
2022/09/15 02:31:34;;;;;;;4.60;3.30;;;17.30;99.90;;;;;;5029376;28;20461;-66
2022/09/15 02:34:07;;;;;;;4.00;3.60;;;17.30;99.90;;;;;;5029794;28;20476;-66
2022/09/15 02:36:35;;;;;;;5.13;3.50;;;17.30;99.90;;;;;;5029987;28;20547;-66
2022/09/15 02:39:07;;;;;;;5.80;3.13;;;17.20;99.90;;;;;;5029791;28;20445;-65
2022/09/15 02:41:35;;;;;;;3.60;3.30;;;17.30;99.90;;;;;;5029394;28;20467;-65
2022/09/15 02:44:02;;;;;;;3.27;2.97;;;17.30;99.90;;;;;;5029262;28;20464;-66
2022/09/15 02:46:29;;;;;;;4.37;2.60;;;17.30;99.90;;;;;;5029724;28;20448;-65
2022/09/15 02:48:56;;;;;;;3.77;2.80;;;17.40;99.90;;;;;;5032509;28;20457;-65
2022/09/15 02:51:24;;;;;;;3.37;2.37;;;17.40;99.90;;;;;;5033403;28;20473;-64
2022/09/15 02:53:52;;;;;;;3.13;2.50;;;17.50;99.90;;;;;;5033462;28;20444;-64
2022/09/15 02:56:19;;;;;;;4.70;2.63;;;17.50;99.90;;;;;;5033599;28;20444;-65
2022/09/15 02:58:46;;;;;;;2.80;2.60;;;17.50;99.90;;;;;;5033376;28;20849;-65
2022/09/15 03:01:15;;;;;;;5.27;2.90;;;17.50;99.90;;;;;;5033489;28;20448;-63
2022/09/15 03:03:43;;;;;;;2.90;2.50;;;17.50;99.90;;;;;;5033244;28;20441;-64
2022/09/15 03:06:20;;;;;;;2.60;2.40;;;17.50;99.90;;;;;;5033314;28;20445;-64
2022/09/15 03:08:51;;;;;;;2.90;2.60;;;17.50;99.90;;;;;;5033192;28;20949;-65
2022/09/15 03:11:19;;;;;;;2.43;2.10;;;17.50;99.90;;;;;;5032939;28;20455;-64
2022/09/15 03:13:46;;;;;;;4.90;3.07;;;17.50;99.90;;;;;;5032612;28;20579;-65
2022/09/15 03:16:15;;;;;;;3.50;2.70;;;17.50;99.90;;;;;;5033096;28;20829;-66
2022/09/15 03:18:42;;;;;;;2.57;2.37;;;17.50;99.90;;;;;;5033004;28;20456;-66
2022/09/15 03:21:11;;;;;;;2.30;1.97;;;17.50;99.90;;;;;;5032907;28;20452;-65
2022/09/15 03:23:39;;;;;;;4.03;2.47;;;17.50;99.90;;;;;;5032347;28;20506;-65
2022/09/15 03:26:08;;;;;;;2.50;2.30;;;17.50;99.90;;;;;;5032964;28;20483;-65
2022/09/15 03:28:35;;;;;;;2.00;1.47;;;17.50;99.90;;;;;;5032854;28;20889;-65
2022/09/15 03:31:03;;;;;;;2.10;1.90;;;17.50;99.90;;;;;;5032807;28;20453;-64
2022/09/15 03:33:29;;;;;;;3.10;1.80;;;17.50;99.90;;;;;;5032235;28;20925;-66
2022/09/15 03:35:56;;;;;;;3.10;2.33;;;17.40;99.90;;;;;;5032493;28;20821;-65
2022/09/15 03:38:23;;;;;;;2.33;1.80;;;17.40;99.90;;;;;;5032611;28;20474;-66
2022/09/15 03:40:57;;;;;;;2.87;2.17;;;17.40;99.90;;;;;;5032945;28;20451;-65
2022/09/15 03:43:26;;;;;;;3.83;1.93;;;17.40;99.90;;;;;;5031972;28;20975;-66
2022/09/15 03:45:52;;;;;;;2.30;2.10;;;17.40;99.90;;;;;;5032501;28;20448;-65
2022/09/15 03:48:19;;;;;;;2.53;2.33;;;17.30;99.90;;;;;;5032439;28;20448;-65
2022/09/15 03:50:46;;;;;;;3.40;2.67;;;17.30;99.90;;;;;;5032386;28;20966;-65
2022/09/15 03:53:13;;;;;;;2.80;2.27;;;17.30;99.90;;;;;;5031761;28;20492;-65
2022/09/15 03:55:39;;;;;;;1.80;1.70;;;17.40;99.90;;;;;;5032340;28;20456;-65
2022/09/15 03:58:06;;;;;;;3.27;2.13;;;17.50;99.90;;;;;;5032264;28;21076;-64
2022/09/15 04:00:35;;;;;;;3.30;1.93;;;17.40;99.90;;;;;;5032563;28;20973;-65
2022/09/15 04:03:02;;;;;;;3.30;1.90;;;17.40;99.90;;;;;;5031827;28;20461;-67
2022/09/15 04:05:28;;;;;;;2.70;2.03;;;17.40;99.90;;;;;;5031948;28;20553;-65
2022/09/15 04:07:55;;;;;;;2.50;2.20;;;17.40;99.90;;;;;;5032223;28;20467;-65
2022/09/15 04:10:23;;;;;;;3.50;1.90;;;17.40;99.90;;;;;;5032627;28;20946;-65
2022/09/15 04:12:51;;;;;;;2.43;1.53;;;17.40;99.90;;;;;;5031647;28;20481;-67
2022/09/15 04:15:18;;;;;;;4.23;2.10;;;17.50;99.90;;;;;;5031964;28;20532;-65
2022/09/15 04:17:46;;;;;;;2.43;2.00;;;17.50;99.90;;;;;;5031792;28;20451;-65
2022/09/15 04:20:13;;;;;;;2.17;1.70;;;17.50;99.90;;;;;;5032010;28;20449;-65
2022/09/15 04:22:40;;;;;;;2.10;1.90;;;17.60;99.90;;;;;;5031598;28;20456;-66
2022/09/15 04:25:08;;;;;;;1.90;1.70;;;17.70;99.90;;;;;;5031632;28;20531;-65
2022/09/15 04:27:36;;;;;;;2.03;1.83;;;17.70;99.90;;;;;;5031840;28;20456;-63
2022/09/15 04:30:04;;;;;;;2.10;1.80;;;17.80;99.90;;;;;;5044687;28;20460;-63
2022/09/15 04:32:31;;;;;;;2.53;1.90;;;17.80;99.90;;;;;;5049858;28;20869;-64
2022/09/15 04:34:59;;;;;;;2.27;1.57;;;17.80;99.90;;;;;;5050427;28;20962;-64
2022/09/15 04:37:26;;;;;;;2.50;1.83;;;17.80;99.90;;;;;;5052595;28;21031;-65
2022/09/15 04:39:53;;;;;;;2.40;2.20;;;17.90;99.90;;;;;;5051111;28;20474;-66
2022/09/15 04:42:20;;;;;;;2.10;1.90;;;17.90;99.90;;;;;;5046180;28;20833;-66
2022/09/15 04:44:47;;;;;;;3.50;2.20;;;17.90;99.90;;;;;;5051707;28;20444;-65
2022/09/15 04:47:14;;;;;;;2.30;2.10;;;17.90;99.90;;;;;;5051384;28;20444;-65
2022/09/15 04:49:42;;;;;;;3.10;2.07;;;17.80;99.90;;;;;;5051632;28;20455;-67
2022/09/15 04:52:10;;;;;;;2.97;2.23;;;17.80;99.90;;;;;;5050534;28;20470;-66
2022/09/15 04:54:37;;;;;;;3.70;2.17;;;17.70;99.90;;;;;;5050714;28;20452;-65
2022/09/15 04:57:04;;;;;;;3.30;2.27;;;17.60;99.90;;;;;;5050920;28;20467;-65
2022/09/15 04:59:31;;;;;;;3.03;2.20;;;17.60;99.90;;;;;;5050795;28;20454;-65
2022/09/15 05:01:57;;;;;;;2.10;1.90;;;17.60;99.90;;;;;;5048355;28;20508;-65
2022/09/15 05:04:24;;;;;;;2.20;2.00;;;17.60;99.90;;;;;;5050491;28;20440;-64
2022/09/15 05:06:51;;;;;;;2.67;2.40;;;17.60;99.90;;;;;;5050800;28;20448;-64
2022/09/15 05:09:19;;;;;;;3.33;2.37;;;17.50;99.90;;;;;;5050683;28;20476;-64
2022/09/15 05:11:46;;;;;;;4.63;2.40;;;17.50;99.90;;;;;;5049616;28;20973;-65
2022/09/15 05:14:13;;;;;;;3.03;2.50;;;17.50;99.90;;;;;;5050620;28;20483;-65
2022/09/15 05:16:39;;;;;;;3.33;2.00;;;17.50;99.90;;;;;;5050840;28;20452;-64
2022/09/15 05:19:06;;;;;;;4.30;2.47;;;17.40;99.90;;;;;;5050224;28;20449;-63
2022/09/15 05:21:33;;;;;;;2.70;2.50;;;17.40;99.90;;;;;;5050485;28;20459;-65
2022/09/15 05:24:00;;;;;;;4.20;2.40;;;17.50;99.90;;;;;;5050004;28;20491;-66
2022/09/15 05:26:29;;;;;;;4.73;2.77;;;17.50;99.90;;;;;;5050311;28;20954;-65
2022/09/15 05:28:56;;;;;;;2.10;1.90;;;17.50;99.90;;;;;;5050202;28;20554;-65
2022/09/15 05:31:25;;;;;;;2.63;2.40;;;17.50;99.90;;;;;;5050271;28;20475;-65
2022/09/15 05:33:52;;;;;;;4.03;2.40;;;17.50;99.90;;;;;;5049981;28;20487;-66
2022/09/15 05:36:22;;;;;;;3.23;2.60;;;17.50;99.90;;;;;;5050309;28;20455;-66
2022/09/15 05:38:49;;;;;;;2.53;2.10;;;17.50;99.90;;;;;;5050130;28;20475;-64
2022/09/15 05:41:17;;;;;;;2.83;2.30;;;17.50;99.90;;;;;;5049941;28;20875;-64
2022/09/15 05:43:47;;;;;;;4.37;2.30;;;17.40;99.90;;;;;;5050149;28;20497;-66
2022/09/15 05:46:14;;;;;;;3.90;3.50;;;17.40;99.90;;;;;;5050145;28;20451;-66
2022/09/15 05:48:41;;;;;;;3.67;2.90;;;17.40;99.90;;;;;;5044892;28;20448;-64
2022/09/15 05:51:08;;;;;;;4.73;3.00;;;17.40;99.90;;;;;;5048144;28;20444;-65
2022/09/15 05:53:36;;;;;;;4.87;2.47;;;17.40;99.90;;;;;;5048483;28;20884;-65
2022/09/15 05:56:06;;;;;;;4.57;2.83;;;17.40;99.90;;;;;;5048885;28;20934;-65
2022/09/15 05:58:33;;;;;;;2.77;2.57;;;17.40;99.90;;;;;;5048242;28;20958;-65
2022/09/15 06:01:06;;;;;;;3.30;2.80;;;17.40;99.90;;;;;;5048770;28;20451;-66
2022/09/15 06:03:33;;;;;;;5.90;2.47;;;17.40;99.90;;;;;;5048622;28;20913;-66
2022/09/15 06:06:00;;;;;;;2.90;2.30;;;17.40;99.90;;;;;;5048978;28;20443;-64
2022/09/15 06:08:31;;;;;;;3.03;1.97;;;17.50;99.90;;;;;;5048486;28;20456;-64
2022/09/15 06:11:02;;;;;;;2.30;2.10;;;17.50;99.90;;;;;;5044952;28;20457;-66
2022/09/15 06:13:28;;;;;;;3.10;2.07;;;17.60;99.90;;;;;;5040884;28;20545;-65
2022/09/15 06:16:00;;;;;;;4.53;2.40;;;17.50;99.90;;;;;;5045008;28;20451;-64
2022/09/15 06:18:28;;;;;;;2.70;2.37;;;17.50;99.90;;;;;;5043519;28;20448;-65
2022/09/15 06:20:55;;;;;;;5.63;2.17;;;17.60;99.90;;;;;;5044517;28;20441;-65
2022/09/15 06:23:22;;;;;;;2.40;2.20;;;17.60;99.90;;;;;;5042073;28;20467;-64
2022/09/15 06:25:48;;;;;;;1.67;1.53;;;17.70;99.90;;;;;;5047566;28;21016;-64
2022/09/15 06:28:15;;;;;;;4.60;2.67;;;17.70;99.90;;;;;;5049473;28;20448;-64
2022/09/15 06:30:47;;;;;;;8.30;2.83;;;17.70;99.90;;;;;;5049573;28;20447;-63
2022/09/15 06:33:14;;;;;;;8.90;3.67;;;17.60;99.90;;;;;;5045063;28;20488;-63
2022/09/15 06:35:42;;;;;;;4.30;2.90;;;17.50;99.90;;;;;;5046858;28;20518;-64
2022/09/15 06:38:09;;;;;;;3.03;2.50;;;17.50;99.90;;;;;;5043729;28;20840;-63
2022/09/15 06:40:36;;;;;;;2.97;2.60;;;17.40;99.90;;;;;;5038344;28;21042;-64
2022/09/15 06:43:03;;;;;;;3.97;2.77;;;17.30;99.90;;;;;;5046556;28;20804;-64
2022/09/15 06:45:29;;;;;;;5.23;2.83;;;17.30;99.90;;;;;;5044793;28;20823;-64
2022/09/15 06:47:56;;;;;;;3.10;2.60;;;17.30;99.90;;;;;;5043555;28;20478;-64
2022/09/15 06:50:23;;;;;;;4.60;3.40;;;17.30;99.90;;;;;;5035508;28;20976;-63
2022/09/15 06:52:51;;;;;;;6.13;2.60;;;17.30;99.90;;;;;;5037318;28;20888;-64
2022/09/15 06:55:18;;;;;;;3.00;2.37;;;17.30;99.90;;;;;;5039615;28;20448;-63
2022/09/15 06:57:45;;;;;;;4.93;2.60;;;17.30;99.90;;;;;;5038441;28;20444;-63
2022/09/15 07:00:12;;;;;;;3.63;2.40;;;17.30;99.90;;;;;;5046853;28;20912;-64
2022/09/15 07:02:39;;;;;;;3.20;2.30;;;17.30;99.90;;;;;;5043433;28;20480;-63
2022/09/15 07:05:06;;;;;;;5.67;2.97;;;17.30;99.90;;;;;;5043846;28;20485;-64
2022/09/15 07:07:33;;;;;;;3.70;2.43;;;17.20;99.90;;;;;;5047475;28;20805;-64
2022/09/15 07:10:01;;;;;;;2.90;2.60;;;17.20;99.90;;;;;;5047766;28;21201;-63
2022/09/15 07:12:28;;;;;;;3.37;2.53;;;17.20;99.90;;;;;;5048746;28;20468;-63
2022/09/15 07:14:55;;;;;;;2.70;2.07;;;17.20;99.90;;;;;;5048799;28;20491;-63
2022/09/15 07:17:21;;;;;;;3.60;2.07;;;17.20;99.90;;;;;;5049255;28;20448;-63
2022/09/15 07:19:48;;;;;;;4.50;2.40;;;17.20;99.90;;;;;;5049464;28;20791;-64
2022/09/15 07:22:15;;;;;;;3.37;2.27;;;17.30;99.90;;;;;;5048696;28;20463;-64
2022/09/15 07:24:42;;;;;;;2.47;2.10;;;17.40;99.90;;;;;;5049037;28;20448;-64
2022/09/15 07:27:10;;;;;;;2.00;1.87;;;17.50;99.90;;;;;;5048895;28;20448;-64
2022/09/15 07:29:37;;;;;;;3.60;2.20;;;17.50;99.90;;;;;;5048833;28;20458;-64
2022/09/15 07:32:04;;;;;;;2.97;2.40;;;17.50;99.90;;;;;;5048511;28;20472;-65
2022/09/15 07:34:31;;;;;;;3.27;1.90;;;17.60;99.90;;;;;;5050751;28;21001;-65
2022/09/15 07:36:58;;;;;;;2.60;1.50;;;17.60;99.90;;;;;;5052384;28;20470;-65
2022/09/15 07:39:25;;;;;;;2.60;1.77;;;17.70;99.90;;;;;;5052416;28;20452;-65
2022/09/15 07:41:51;;;;;;;3.53;2.10;;;17.70;99.90;;;;;;5051967;28;20978;-64
2022/09/15 07:44:19;;;;;;;3.30;2.20;;;17.90;99.90;;;;;;5052237;28;20448;-64
2022/09/15 07:46:46;;;;;;;3.77;2.07;;;18.00;99.90;;;;;;5052529;28;20856;-64
2022/09/15 07:49:13;;;;;;;2.43;1.93;;;18.10;99.90;;;;;;5052168;28;20448;-64
2022/09/15 07:51:40;;;;;;;2.43;1.80;;;18.20;99.90;;;;;;5052232;28;20467;-64
2022/09/15 07:54:06;;;;;;;2.80;2.10;;;18.20;99.90;;;;;;5051917;28;20481;-64
2022/09/15 07:56:33;;;;;;;2.83;2.23;;;18.30;99.90;;;;;;5051999;28;20448;-64
2022/09/15 07:59:00;;;;;;;3.20;1.73;;;18.40;99.90;;;;;;5052243;28;20448;-65
2022/09/15 08:01:28;;;;;;;2.00;1.80;;;18.40;99.90;;;;;;5052017;28;20442;-64
2022/09/15 08:03:55;;;;;;;2.83;2.40;;;18.30;99.90;;;;;;5051766;28;20193;-64
2022/09/15 08:06:25;;;;;;;2.83;2.00;;;18.40;99.90;;;;;;5051999;28;20447;-65
2022/09/15 08:08:52;;;;;;;2.03;1.83;;;18.30;99.90;;;;;;5051897;28;20954;-65
2022/09/15 08:11:20;;;;;;;2.77;1.60;;;18.20;99.90;;;;;;5051720;28;20451;-65
2022/09/15 08:13:48;;;;;;;3.50;1.83;;;18.10;99.90;;;;;;5051453;28;20479;-64
2022/09/15 08:16:16;;;;;;;3.67;2.47;;;18.10;99.90;;;;;;5052010;28;20451;-63
2022/09/15 08:18:44;;;;;;;3.13;2.30;;;18.00;99.90;;;;;;5051941;28;20464;-64
2022/09/15 08:21:13;;;;;;;2.50;2.30;;;18.00;99.90;;;;;;5051896;28;20443;-64
2022/09/15 08:23:40;;;;;;;4.33;2.40;;;17.90;99.90;;;;;;5051633;28;20459;-63
2022/09/15 08:26:08;;;;;;;3.20;2.03;;;17.90;99.90;;;;;;5051798;28;20448;-64
2022/09/15 08:28:35;;;;;;;5.60;2.27;;;18.00;99.90;;;;;;5052109;28;20466;-64
2022/09/15 08:31:04;;;;;;;4.33;1.90;;;18.00;99.90;;;;;;5051862;28;20455;-64
2022/09/15 08:33:30;;;;;;;4.23;2.10;;;18.00;99.90;;;;;;5051361;28;20480;-64
2022/09/15 08:36:03;;;;;;;2.50;2.20;;;18.00;99.90;;;;;;5051531;28;20436;-64
2022/09/15 08:38:30;;;;;;;2.17;1.80;;;18.00;99.90;;;;;;5051444;28;20444;-64
2022/09/15 08:41:00;;;;;;;2.57;1.90;;;18.00;99.90;;;;;;5051650;28;21152;-64
2022/09/15 08:43:31;;;;;;;2.30;1.63;;;18.00;99.90;;;;;;5051029;28;20468;-65
2022/09/15 08:46:03;;;;;;;3.73;1.90;;;18.20;99.90;;;;;;5050414;28;20448;-65
2022/09/15 08:48:36;;;;;;;3.50;1.83;;;18.30;99.90;;;;;;5051232;28;20447;-65
2022/09/15 08:51:12;;;;;;;2.00;1.43;;;18.40;99.90;;;;;;5051357;28;20482;-64
2022/09/15 08:53:45;;;;;;;1.83;1.43;;;18.50;99.90;;;;;;5051342;28;20475;-65
2022/09/15 08:56:15;;;;;;;2.63;1.50;;;18.60;99.90;;;;;;5051301;28;20817;-65
2022/09/15 08:58:44;;;;;;;2.37;1.40;;;18.50;99.90;;;;;;5051025;28;20521;-64
2022/09/15 09:01:20;;;;;;;6.60;1.70;;;18.50;99.90;;;;;;5050594;28;20448;-64
2022/09/15 09:04:12;;;;;;;2.17;1.50;;;18.50;99.90;;;;;;5050779;28;20466;-64
2022/09/15 09:06:49;;;;;;;1.57;1.10;;;18.60;99.90;;;;;;5050961;28;20455;-65
2022/09/15 09:09:25;;;;;;;5.20;1.87;;;18.70;99.90;;;;;;5050742;28;20444;-65
2022/09/15 09:12:17;;;;;;;3.10;1.77;;;18.60;99.90;;;;;;5050608;28;20570;-65
2022/09/15 09:15:00;;;;;;;7.07;1.50;;;18.70;99.90;;;;;;5050805;28;20491;-66
2022/09/15 09:17:41;;;;;;;1.97;1.53;;;18.60;99.90;;;;;;5050559;28;20443;-66
2022/09/15 09:20:30;;;;;;;2.37;1.30;;;18.40;99.90;;;;;;5050369;28;20451;-65
2022/09/15 09:23:04;;;;;;;1.27;0.87;;;18.30;99.90;;;;;;5050266;28;20464;-64
2022/09/15 09:25:30;;;;;;;1.20;0.90;;;18.30;99.90;;;;;;5050440;28;20456;-65
2022/09/15 09:27:58;;;;;;;3.57;1.20;;;18.30;99.90;;;;;;5050443;28;20452;-65
2022/09/15 09:30:28;;;;;;;2.20;0.80;;;18.30;99.90;;;;;;5050016;28;20456;-64
2022/09/15 09:33:12;;;;;;;1.00;0.73;;;18.20;99.90;;;;;;5050104;28;20464;-65
2022/09/15 09:35:44;;;;;;;1.27;0.80;;;18.20;99.90;;;;;;5044356;28;20485;-65
2022/09/15 09:38:19;;;;;;;2.80;0.93;;;18.10;99.90;;;;;;5037170;28;20499;-66
2022/09/15 09:40:46;;;;;;;1.23;0.63;;;18.20;99.90;;;;;;5045661;28;20455;-67
2022/09/15 09:43:13;;;;;;;1.50;0.70;;;18.10;99.90;;;;;;5048715;28;20468;-64
2022/09/15 09:45:40;;;;;;;2.60;1.33;;;17.90;99.90;;;;;;5049807;28;20445;-64
2022/09/15 09:48:15;;;;;;;1.70;1.40;;;17.80;99.90;;;;;;5050205;28;20801;-64
2022/09/15 09:50:43;;;;;;;2.33;0.90;;;17.60;99.90;;;;;;5049954;28;20451;-65
2022/09/15 09:53:29;;;;;;;1.73;1.10;;;17.40;99.90;;;;;;5049366;28;20505;-64
2022/09/15 09:56:16;;;;;;;1.93;0.70;;;17.30;99.90;;;;;;5046554;28;20479;-65
2022/09/15 09:58:44;;;;;;;3.80;0.97;;;17.20;99.90;;;;;;5044310;28;20452;-66
2022/09/15 10:01:12;;;;;;;2.13;0.90;;;17.20;99.90;;;;;;5049291;28;20451;-63
2022/09/15 10:03:40;;;;;;;2.77;1.03;;;17.10;99.90;;;;;;5049474;28;20439;-65
2022/09/15 10:06:12;;;;;;;1.77;0.97;;;17.00;99.90;;;;;;5049918;28;20454;-65
2022/09/15 10:08:53;;;;;;;2.27;0.90;;;17.00;99.90;;;;;;5050031;28;20470;-65
2022/09/15 10:11:21;;;;;;;1.50;0.83;;;16.90;99.90;;;;;;5049845;28;20443;-65
2022/09/15 10:13:52;;;;;;;2.00;1.57;;;16.90;99.90;;;;;;5047153;28;20896;-65
2022/09/15 10:16:20;;;;;;;1.87;1.47;;;16.70;99.90;;;;;;5048587;28;20436;-64
2022/09/15 10:18:48;;;;;;;1.77;1.67;;;16.60;99.90;;;;;;5046107;28;20459;-65
2022/09/15 10:21:15;;;;;;;1.97;1.80;;;16.50;99.90;;;;;;5047444;28;20459;-64
2022/09/15 10:23:44;;;;;;;2.87;2.17;;;16.50;99.90;;;;;;5041269;28;20448;-64
2022/09/15 10:26:23;;;;;;;1.90;1.80;;;16.40;99.90;;;;;;5047363;28;20459;-64
2022/09/15 10:29:13;;;;;;;3.10;2.70;;;16.20;99.90;;;;;;5041679;28;20524;-64
2022/09/15 10:31:40;;;;;;;4.57;3.07;;;16.10;99.90;;;;;;5049109;28;20452;-64
2022/09/15 10:34:27;;;;;;;4.10;3.70;;;16.00;99.90;;;;;;5045370;28;20906;-65
2022/09/15 10:37:02;;;;;;;3.00;2.80;;;15.90;99.90;;;;;;5045935;28;20444;-64
2022/09/15 10:39:39;;;;;;;3.30;3.10;;;15.90;99.90;;;;;;5038694;28;20448;-64
2022/09/15 10:42:12;;;;;;;4.63;4.23;;;15.70;99.90;;;;;;5036123;28;20471;-65
2022/09/15 10:44:47;;;;;;;4.93;4.43;;;15.70;99.90;;;;;;5036396;28;20444;-65
2022/09/15 10:47:25;;;;;;;4.60;4.20;;;15.50;99.90;;;;;;5032499;28;20443;-65
2022/09/15 10:50:06;;;;;;;10.53;5.17;;;15.50;99.90;;;;;;5038115;28;20452;-64
2022/09/15 10:52:43;;;;;;;8.20;6.13;;;15.40;99.90;;;;;;5038289;28;20504;-65
2022/09/15 10:55:25;;;;;;;6.00;5.50;;;15.30;99.90;;;;;;5037792;28;20487;-64
2022/09/15 10:58:06;;;;;;;6.97;6.27;;;15.20;99.90;;;;;;5035496;28;20453;-64
2022/09/15 11:00:41;;;;;;;7.50;6.13;;;15.20;99.90;;;;;;5036615;28;20528;-65
2022/09/15 11:03:40;;;;;;;6.50;5.90;;;15.20;99.90;;;;;;5038769;28;20463;-65
2022/09/15 11:06:17;;;;;;;8.13;7.00;;;15.20;99.90;;;;;;5023186;28;21050;-65
2022/09/15 11:09:01;;;;;;;6.87;6.27;;;15.10;99.90;;;;;;5040433;28;20451;-66
2022/09/15 11:11:40;;;;;;;7.40;5.63;;;15.10;99.90;;;;;;5041250;28;21179;-66
2022/09/15 11:14:22;;;;;;;6.83;6.13;;;15.00;99.90;;;;;;5040878;28;20440;-65
2022/09/15 11:17:00;;;;;;;7.43;6.63;;;15.00;99.90;;;;;;5038562;28;20442;-65
2022/09/15 11:19:41;;;;;;;7.57;6.87;;;15.00;99.90;;;;;;5036480;28;20467;-65
2022/09/15 11:22:13;;;;;;;7.47;6.77;;;15.10;99.90;;;;;;5043104;28;20475;-65
2022/09/15 11:24:44;;;;;;;7.60;6.90;;;15.20;99.90;;;;;;5049809;28;20448;-65
2022/09/15 11:27:19;;;;;;;7.30;6.70;;;15.40;99.90;;;;;;5051267;28;20931;-66
2022/09/15 11:30:00;;;;;;;6.03;5.43;;;15.50;99.90;;;;;;5038376;28;20809;-65
2022/09/15 11:32:32;;;;;;;6.80;6.10;;;15.40;99.90;;;;;;5045555;28;20879;-66
2022/09/15 11:35:07;;;;;;;7.77;6.20;;;15.40;99.90;;;;;;5042420;28;20484;-65
2022/09/15 11:37:39;;;;;;;7.50;6.23;;;15.30;99.90;;;;;;5043060;28;20486;-65
2022/09/15 11:40:16;;;;;;;8.50;6.43;;;15.30;99.90;;;;;;5043955;28;20478;-66
2022/09/15 11:42:52;;;;;;;6.90;6.30;;;15.20;99.90;;;;;;5047142;28;20482;-65
2022/09/15 11:45:24;;;;;;;6.40;5.90;;;15.20;99.90;;;;;;5051885;28;20948;-64
2022/09/15 11:47:55;;;;;;;6.53;5.93;;;15.20;99.90;;;;;;5049451;28;20459;-65
2022/09/15 11:50:28;;;;;;;8.00;6.73;;;15.20;99.90;;;;;;5043816;28;20531;-65
2022/09/15 11:52:58;;;;;;;7.70;6.00;;;15.20;99.90;;;;;;5040286;28;20498;-65
2022/09/15 11:55:32;;;;;;;6.10;5.60;;;15.30;99.90;;;;;;5051137;28;21000;-64
2022/09/15 11:58:12;;;;;;;7.03;6.20;;;15.20;99.90;;;;;;5051376;28;20443;-65
2022/09/15 12:00:49;;;;;;;7.50;6.50;;;15.30;99.90;;;;;;5050252;28;20436;-65
2022/09/15 12:03:22;;;;;;;8.77;5.70;;;15.40;99.90;;;;;;5040928;28;20587;-65
2022/09/15 12:05:52;;;;;;;6.20;5.63;;;15.70;99.90;;;;;;5049312;28;20444;-64
2022/09/15 12:08:24;;;;;;;5.70;5.20;;;15.70;99.90;;;;;;5040504;28;20460;-65
2022/09/15 12:10:54;;;;;;;10.53;6.03;;;15.60;99.90;;;;;;5040310;28;20448;-64
2022/09/15 12:13:25;;;;;;;5.87;5.10;;;15.50;99.90;;;;;;5046736;28;20500;-65
2022/09/15 12:15:52;;;;;;;6.80;6.20;;;15.50;99.90;;;;;;5049105;28;20480;-64
2022/09/15 12:18:26;;;;;;;6.97;6.07;;;15.40;99.90;;;;;;5049342;28;20458;-65
2022/09/15 12:20:59;;;;;;;6.90;5.63;;;15.50;99.90;;;;;;5051720;28;20443;-65
2022/09/15 12:23:32;;;;;;;6.50;5.60;;;15.60;99.90;;;;;;5051035;28;20464;-66
2022/09/15 12:26:13;;;;;;;6.60;6.00;;;15.60;99.90;;;;;;5048346;28;20459;-65
2022/09/15 12:28:53;;;;;;;11.33;5.90;;;15.60;99.90;;;;;;5046096;28;20448;-65
2022/09/15 12:31:34;;;;;;;7.90;6.57;;;15.90;99.90;;;;;;5051007;28;20881;-65
2022/09/15 12:34:02;;;;;;;7.53;6.50;;;16.00;99.90;;;;;;5048903;28;20456;-65
2022/09/15 12:36:42;;;;;;;7.23;6.50;;;16.00;99.90;;;;;;5049003;28;20890;-65
2022/09/15 12:39:25;;;;;;;6.97;5.43;;;16.00;99.90;;;;;;5048222;28;20440;-66
2022/09/15 12:41:54;;;;;;;6.43;4.90;;;16.10;99.90;;;;;;5046791;28;20463;-66
2022/09/15 12:44:29;;;;;;;6.47;5.47;;;16.30;99.90;;;;;;5044085;28;20451;-66
2022/09/15 12:46:58;;;;;;;7.30;5.70;;;16.40;99.90;;;;;;5048459;28;20440;-66
2022/09/15 12:49:31;;;;;;;5.80;5.20;;;16.50;99.90;;;;;;5041358;28;20448;-66
2022/09/15 12:52:00;;;;;;;7.00;5.93;;;16.70;99.90;;;;;;5046823;28;20466;-66
2022/09/15 12:54:31;;;;;;;5.90;5.30;;;17.00;99.90;;;;;;5049327;28;20443;-67
2022/09/15 12:57:00;;;;;;;5.30;4.70;;;17.50;99.90;;;;;;5049496;28;20957;-67
2022/09/15 12:59:29;;;;;;;7.03;5.17;;;17.60;99.90;;;;;;5050288;28;20451;-67
2022/09/15 13:01:56;;;;;;;6.73;5.17;;;17.50;99.90;;;;;;5049669;28;20518;-68
2022/09/15 13:04:27;;;;;;;8.70;4.67;;;17.30;99.90;;;;;;5047560;28;20448;-67